Time;durP1;ratioP1;P1;durP2;ratioP2;P2;SDS_P1;SDS_P2;PMS_P1;PMS_P2;Temp;Humidity;BMP_temperature;BMP_pressure;BME280_temperature;BME280_humidity;BME280_pressure;Samples;Min_cycle;Max_cycle;Signal;HPM_P1;HPM_P2
2023/06/28 00:00:03;;;;;;;5.80;1.40;;;;;;;;;;5037961;28;20108;-65
2023/06/28 00:02:35;;;;;;;4.65;1.60;;;;;;;;;;5050010;28;20053;-65
2023/06/28 00:05:02;;;;;;;2.70;1.17;;;;;;;;;;5049400;28;20087;-64
2023/06/28 00:07:28;;;;;;;6.95;1.70;;;;;;;;;;5052590;28;20068;-65
2023/06/28 00:09:56;;;;;;;5.00;1.50;;;;;;;;;;5048466;28;20053;-65
2023/06/28 00:12:23;;;;;;;5.72;1.60;;;;;;;;;;5044348;28;20053;-66
2023/06/28 00:14:49;;;;;;;5.25;1.52;;;;;;;;;;5038399;28;20061;-63
2023/06/28 00:17:16;;;;;;;4.43;1.70;;;;;;;;;;5039135;28;20072;-63
2023/06/28 00:19:47;;;;;;;5.15;1.70;;;;;;;;;;5015008;28;20168;-64
2023/06/28 00:22:14;;;;;;;10.18;2.60;;;;;;;;;;5033072;28;20060;-64
2023/06/28 00:24:42;;;;;;;9.07;4.28;;;;;;;;;;5041234;28;20119;-67
2023/06/28 00:27:11;;;;;;;7.03;2.20;;;;;;;;;;5038159;28;20152;-68
2023/06/28 00:29:37;;;;;;;6.85;1.90;;;;;;;;;;5027430;28;20088;-66
2023/06/28 00:32:04;;;;;;;5.88;1.65;;;;;;;;;;5034033;28;20048;-66
2023/06/28 00:34:31;;;;;;;5.68;1.63;;;;;;;;;;5036641;28;20162;-68
2023/06/28 00:36:57;;;;;;;3.15;1.45;;;;;;;;;;5038330;28;20052;-66
2023/06/28 00:39:24;;;;;;;6.25;1.75;;;;;;;;;;5035748;28;20142;-65
2023/06/28 00:41:50;;;;;;;4.05;1.50;;;;;;;;;;5034691;28;20053;-64
2023/06/28 00:44:18;;;;;;;7.25;2.20;;;;;;;;;;5034123;28;20153;-67
2023/06/28 00:46:45;;;;;;;4.93;1.33;;;;;;;;;;5035921;28;20092;-67
2023/06/28 00:49:11;;;;;;;4.45;1.70;;;;;;;;;;5036994;28;20140;-64
2023/06/28 00:51:39;;;;;;;4.07;1.52;;;;;;;;;;5035615;28;20053;-67
2023/06/28 00:54:05;;;;;;;3.40;1.40;;;;;;;;;;5038785;28;20068;-67
2023/06/28 00:56:32;;;;;;;5.72;1.60;;;;;;;;;;5031610;28;20060;-67
2023/06/28 00:58:58;;;;;;;8.95;1.60;;;;;;;;;;5038452;28;20084;-67
2023/06/28 01:01:26;;;;;;;6.03;1.55;;;;;;;;;;5037637;28;20068;-66
2023/06/28 01:03:53;;;;;;;5.57;1.45;;;;;;;;;;5039504;28;20122;-65
2023/06/28 01:06:21;;;;;;;3.85;1.08;;;;;;;;;;5032505;28;20116;-66
2023/06/28 01:08:48;;;;;;;4.40;1.60;;;;;;;;;;5034030;28;20053;-66
2023/06/28 01:11:14;;;;;;;5.72;1.85;;;;;;;;;;5038687;28;20049;-63
2023/06/28 01:13:41;;;;;;;7.18;1.23;;;;;;;;;;5037533;28;20065;-67
2023/06/28 01:16:08;;;;;;;4.68;1.58;;;;;;;;;;5036570;28;20092;-63
2023/06/28 01:18:36;;;;;;;3.22;1.35;;;;;;;;;;5030697;28;21429;-64
2023/06/28 01:21:03;;;;;;;5.00;1.50;;;;;;;;;;5037384;28;20080;-64
2023/06/28 01:23:31;;;;;;;5.35;1.27;;;;;;;;;;5031185;28;20052;-67
2023/06/28 01:26:02;;;;;;;5.82;1.33;;;;;;;;;;5039861;28;20064;-65
2023/06/28 01:28:29;;;;;;;3.47;1.25;;;;;;;;;;5023627;28;20057;-66
2023/06/28 01:30:56;;;;;;;3.30;1.35;;;;;;;;;;5037785;28;20150;-65
2023/06/28 01:33:22;;;;;;;5.03;1.10;;;;;;;;;;5039054;28;20057;-64
2023/06/28 01:35:48;;;;;;;3.95;1.00;;;;;;;;;;5041549;28;20057;-66
2023/06/28 01:38:16;;;;;;;4.57;1.23;;;;;;;;;;5027738;28;20203;-65
2023/06/28 01:40:44;;;;;;;4.18;1.00;;;;;;;;;;5039063;28;20147;-65
2023/06/28 01:43:11;;;;;;;2.35;1.10;;;;;;;;;;5036301;28;20080;-66
2023/06/28 01:45:37;;;;;;;3.70;1.10;;;;;;;;;;5037477;28;20069;-67
2023/06/28 01:48:05;;;;;;;2.92;1.15;;;;;;;;;;5038176;28;20120;-63
2023/06/28 01:50:31;;;;;;;3.22;1.00;;;;;;;;;;5032495;28;20057;-67
2023/06/28 01:52:59;;;;;;;3.47;1.20;;;;;;;;;;5039335;28;20151;-65
2023/06/28 01:55:26;;;;;;;3.15;1.10;;;;;;;;;;5035158;28;20052;-65
2023/06/28 01:57:54;;;;;;;2.08;1.00;;;;;;;;;;5037506;28;20142;-67
2023/06/28 02:00:21;;;;;;;2.60;1.10;;;;;;;;;;5029392;28;20159;-67
2023/06/28 02:02:47;;;;;;;2.67;1.00;;;;;;;;;;5039855;28;20057;-67
2023/06/28 02:05:13;;;;;;;4.18;1.10;;;;;;;;;;4993807;28;20106;-65
2023/06/28 02:07:40;;;;;;;4.55;1.30;;;;;;;;;;5034078;28;20110;-66
2023/06/28 02:10:07;;;;;;;2.17;1.02;;;;;;;;;;5030951;28;20063;-65
2023/06/28 02:12:34;;;;;;;2.70;1.00;;;;;;;;;;5031647;28;20045;-66
2023/06/28 02:15:03;;;;;;;3.50;1.33;;;;;;;;;;5031858;28;20060;-65
2023/06/28 02:17:31;;;;;;;2.80;0.98;;;;;;;;;;5040161;28;20068;-67
2023/06/28 02:19:57;;;;;;;2.53;1.05;;;;;;;;;;5035260;28;20067;-68
2023/06/28 02:22:24;;;;;;;2.75;1.00;;;;;;;;;;5029799;28;20064;-66
2023/06/28 02:24:50;;;;;;;2.47;1.00;;;;;;;;;;5024273;28;20091;-64
2023/06/28 02:27:17;;;;;;;6.15;1.13;;;;;;;;;;5040629;28;20170;-66
2023/06/28 02:29:43;;;;;;;3.83;1.10;;;;;;;;;;5037381;28;20053;-66
2023/06/28 02:32:12;;;;;;;1.08;0.70;;;;;;;;;;5037975;28;20139;-67
2023/06/28 02:34:38;;;;;;;;;;;;;;;;;;5031817;28;20080;-65
2023/06/28 02:37:05;;;;;;;3.17;1.00;;;;;;;;;;5035474;28;19935;-68
2023/06/28 02:39:31;;;;;;;3.00;0.85;;;;;;;;;;5041166;28;20084;-68
2023/06/28 02:41:58;;;;;;;4.30;1.10;;;;;;;;;;5034224;28;20140;-68
2023/06/28 02:44:24;;;;;;;2.50;0.93;;;;;;;;;;5032224;28;20084;-66
2023/06/28 02:46:51;;;;;;;2.67;1.10;;;;;;;;;;5036837;28;20068;-69
2023/06/28 02:49:18;;;;;;;3.97;1.00;;;;;;;;;;5038495;28;20071;-64
2023/06/28 02:51:45;;;;;;;4.63;1.10;;;;;;;;;;5039879;28;20059;-68
2023/06/28 02:54:12;;;;;;;3.08;1.20;;;;;;;;;;5031115;28;20368;-69
2023/06/28 02:56:38;;;;;;;3.88;1.27;;;;;;;;;;5029068;28;20056;-65
2023/06/28 02:59:05;;;;;;;2.83;1.15;;;;;;;;;;5036629;28;20139;-66
2023/06/28 03:01:31;;;;;;;4.00;1.25;;;;;;;;;;5034258;28;20045;-69
2023/06/28 03:03:57;;;;;;;3.05;1.40;;;;;;;;;;5035382;28;20064;-66
2023/06/28 03:06:25;;;;;;;3.20;1.10;;;;;;;;;;5031739;28;20056;-66
2023/06/28 03:08:52;;;;;;;3.90;1.15;;;;;;;;;;5038685;28;20195;-66
2023/06/28 03:11:19;;;;;;;2.67;1.25;;;;;;;;;;5039064;28;20053;-66
2023/06/28 03:13:45;;;;;;;4.80;1.40;;;;;;;;;;5032805;28;20154;-66
2023/06/28 03:16:12;;;;;;;3.50;1.48;;;;;;;;;;5037187;28;20215;-69
2023/06/28 03:18:39;;;;;;;3.92;1.15;;;;;;;;;;5029725;28;20088;-65
2023/06/28 03:21:05;;;;;;;4.35;1.48;;;;;;;;;;5037638;28;20114;-68
2023/06/28 03:23:33;;;;;;;2.80;1.40;;;;;;;;;;5034414;28;20072;-67
2023/06/28 03:25:59;;;;;;;3.33;1.25;;;;;;;;;;5034823;28;20122;-67
2023/06/28 03:28:26;;;;;;;2.85;1.17;;;;;;;;;;5027873;28;20060;-66
2023/06/28 03:30:53;;;;;;;3.50;1.30;;;;;;;;;;5039307;28;20073;-66
2023/06/28 03:33:20;;;;;;;3.70;1.33;;;;;;;;;;5037190;28;20122;-67
2023/06/28 03:35:47;;;;;;;4.00;1.48;;;;;;;;;;5036037;28;20307;-66
2023/06/28 03:38:13;;;;;;;4.20;1.75;;;;;;;;;;5032128;28;20150;-66
2023/06/28 03:40:41;;;;;;;4.65;1.52;;;;;;;;;;5032698;28;20126;-66
2023/06/28 03:43:08;;;;;;;3.83;1.50;;;;;;;;;;5033159;28;20053;-66
2023/06/28 03:45:34;;;;;;;3.72;1.40;;;;;;;;;;5035193;28;20106;-65
2023/06/28 03:48:01;;;;;;;4.15;1.30;;;;;;;;;;5037191;28;20075;-65
2023/06/28 03:50:27;;;;;;;4.75;1.20;;;;;;;;;;5034502;28;20061;-65
2023/06/28 03:52:54;;;;;;;5.65;1.70;;;;;;;;;;5041909;28;20067;-65
2023/06/28 03:55:20;;;;;;;5.07;1.20;;;;;;;;;;5036943;28;20060;-64
2023/06/28 03:57:48;;;;;;;4.05;1.40;;;;;;;;;;5041594;28;20072;-64
2023/06/28 04:00:15;;;;;;;3.77;1.53;;;;;;;;;;5035595;28;20067;-65
2023/06/28 04:02:42;;;;;;;3.85;1.30;;;;;;;;;;5038821;28;20309;-64
2023/06/28 04:05:08;;;;;;;2.97;1.20;;;;;;;;;;5034707;28;20095;-65
2023/06/28 04:07:35;;;;;;;3.50;1.40;;;;;;;;;;5041374;28;20147;-64
2023/06/28 04:10:03;;;;;;;6.93;1.60;;;;;;;;;;5037300;28;20057;-64
2023/06/28 04:12:29;;;;;;;2.92;1.40;;;;;;;;;;5030601;28;20055;-64
2023/06/28 04:14:57;;;;;;;2.15;1.08;;;;;;;;;;5032854;28;20049;-64
2023/06/28 04:17:24;;;;;;;4.85;1.67;;;;;;;;;;5040904;28;20149;-64
2023/06/28 04:19:50;;;;;;;2.13;1.08;;;;;;;;;;5036254;28;20080;-64
2023/06/28 04:22:17;;;;;;;2.30;1.02;;;;;;;;;;5038847;28;20088;-65
2023/06/28 04:24:44;;;;;;;3.67;1.42;;;;;;;;;;5029897;28;20121;-64
2023/06/28 04:27:11;;;;;;;2.17;1.33;;;;;;;;;;5048719;28;20064;-64
2023/06/28 04:29:38;;;;;;;3.10;1.35;;;;;;;;;;5035630;28;20168;-64
2023/06/28 04:32:22;;;;;;;5.07;1.73;;;;;;;;;;5042292;28;20186;-64
2023/06/28 04:34:49;;;;;;;5.68;1.60;;;;;;;;;;5035312;28;20090;-65
2023/06/28 04:37:19;;;;;;;2.03;1.27;;;;;;;;;;5044956;28;20057;-65
2023/06/28 04:39:46;;;;;;;6.28;1.70;;;;;;;;;;5036569;28;20114;-66
2023/06/28 04:42:15;;;;;;;4.68;1.65;;;;;;;;;;5034969;28;20122;-64
2023/06/28 04:44:47;;;;;;;3.97;1.42;;;;;;;;;;4971968;28;20070;-65
2023/06/28 04:47:21;;;;;;;3.88;1.40;;;;;;;;;;5041035;28;20129;-65
2023/06/28 04:49:49;;;;;;;5.70;1.50;;;;;;;;;;5038922;28;20110;-64
2023/06/28 04:52:16;;;;;;;4.20;1.65;;;;;;;;;;5035258;28;20111;-64
2023/06/28 04:54:46;;;;;;;8.25;1.52;;;;;;;;;;5033827;28;20053;-65
2023/06/28 04:57:14;;;;;;;5.88;1.67;;;;;;;;;;5035324;28;20150;-65
2023/06/28 04:59:43;;;;;;;3.33;1.27;;;;;;;;;;5037932;28;20123;-65
2023/06/28 05:02:09;;;;;;;4.68;1.70;;;;;;;;;;5037298;28;20071;-65
2023/06/28 05:04:40;;;;;;;4.72;1.67;;;;;;;;;;5033572;28;20212;-65
2023/06/28 05:07:09;;;;;;;4.72;1.77;;;;;;;;;;5035894;28;20088;-65
2023/06/28 05:09:38;;;;;;;6.43;1.90;;;;;;;;;;5040339;28;20067;-65
2023/06/28 05:12:05;;;;;;;3.90;2.08;;;;;;;;;;5034443;28;20053;-65
2023/06/28 05:14:34;;;;;;;5.57;2.38;;;;;;;;;;5031534;28;20312;-65
2023/06/28 05:17:01;;;;;;;6.05;2.35;;;;;;;;;;5037174;28;20061;-66
2023/06/28 05:19:29;;;;;;;2.28;1.25;;;;;;;;;;5041305;28;20064;-65
2023/06/28 05:21:57;;;;;;;3.22;1.42;;;;;;;;;;5036019;28;20053;-65
2023/06/28 05:24:25;;;;;;;3.55;1.45;;;;;;;;;;5028839;28;20052;-66
2023/06/28 05:26:53;;;;;;;5.40;1.92;;;;;;;;;;5035822;28;20064;-66
2023/06/28 05:29:19;;;;;;;4.55;1.80;;;;;;;;;;5037013;28;20057;-64
2023/06/28 05:31:48;;;;;;;3.78;1.50;;;;;;;;;;5039812;28;20065;-65
2023/06/28 05:34:15;;;;;;;9.30;2.60;;;;;;;;;;5033112;28;20155;-65
2023/06/28 05:36:49;;;;;;;2.80;1.52;;;;;;;;;;5037090;28;21156;-65
2023/06/28 05:39:18;;;;;;;6.35;1.95;;;;;;;;;;5035375;28;20060;-68
2023/06/28 05:41:45;;;;;;;;;;;;;;;;;;5040937;28;20056;-64
2023/06/28 05:44:15;;;;;;;5.38;1.42;;;;;;;;;;5019835;28;19991;-65
2023/06/28 05:46:41;;;;;;;8.60;2.63;;;;;;;;;;5036707;28;20060;-65
2023/06/28 05:49:08;;;;;;;8.02;2.88;;;;;;;;;;5035655;28;20108;-66
2023/06/28 05:51:36;;;;;;;6.25;2.50;;;;;;;;;;5039780;28;20156;-67
2023/06/28 05:54:02;;;;;;;5.43;2.03;;;;;;;;;;5017837;28;20055;-68
2023/06/28 05:56:30;;;;;;;4.32;2.05;;;;;;;;;;5049717;28;20172;-68
2023/06/28 05:58:57;;;;;;;4.85;2.20;;;;;;;;;;5035112;28;20052;-65
2023/06/28 06:01:27;;;;;;;7.72;2.65;;;;;;;;;;5037629;28;20056;-65
2023/06/28 06:03:56;;;;;;;8.68;2.83;;;;;;;;;;5001100;28;20111;-66
2023/06/28 06:06:23;;;;;;;4.68;2.25;;;;;;;;;;5030392;28;20063;-64
2023/06/28 06:08:49;;;;;;;6.00;2.55;;;;;;;;;;5036827;28;20112;-65
2023/06/28 06:11:21;;;;;;;8.07;2.58;;;;;;;;;;5037208;28;20091;-65
2023/06/28 06:13:50;;;;;;;5.47;2.45;;;;;;;;;;5034281;28;20104;-65
2023/06/28 06:16:18;;;;;;;5.97;2.17;;;;;;;;;;5033808;28;20049;-66
2023/06/28 06:18:45;;;;;;;5.80;2.10;;;;;;;;;;5035074;28;21024;-68
2023/06/28 06:21:12;;;;;;;8.68;2.40;;;;;;;;;;5036344;28;20061;-64
2023/06/28 06:23:39;;;;;;;7.20;2.70;;;;;;;;;;5038503;28;20068;-65
2023/06/28 06:26:08;;;;;;;5.85;2.00;;;;;;;;;;5021999;28;20057;-65
2023/06/28 06:28:34;;;;;;;6.18;2.22;;;;;;;;;;5033217;28;20067;-66
2023/06/28 06:31:02;;;;;;;5.28;1.98;;;;;;;;;;5037927;28;20072;-65
2023/06/28 06:33:31;;;;;;;12.13;3.10;;;;;;;;;;5037716;28;20122;-64
2023/06/28 06:36:00;;;;;;;8.40;2.72;;;;;;;;;;5031217;28;20076;-65
2023/06/28 06:38:27;;;;;;;7.38;2.92;;;;;;;;;;5031200;28;20060;-64
2023/06/28 06:40:55;;;;;;;6.97;2.63;;;;;;;;;;5034054;28;20135;-67
2023/06/28 06:43:22;;;;;;;5.00;1.83;;;;;;;;;;5038694;28;20049;-64
2023/06/28 06:45:48;;;;;;;9.68;2.85;;;;;;;;;;5015618;28;20056;-65
2023/06/28 06:48:19;;;;;;;8.38;3.28;;;;;;;;;;5040542;28;20061;-64
2023/06/28 06:50:45;;;;;;;9.55;3.28;;;;;;;;;;5033866;28;20055;-65
2023/06/28 06:53:12;;;;;;;9.27;3.67;;;;;;;;;;5038123;28;20146;-64
2023/06/28 06:55:38;;;;;;;6.22;2.53;;;;;;;;;;5032105;28;20056;-64
2023/06/28 06:58:05;;;;;;;8.20;3.40;;;;;;;;;;5037266;28;20064;-65
2023/06/28 07:00:39;;;;;;;8.85;3.22;;;;;;;;;;5028130;28;20049;-65
2023/06/28 07:03:07;;;;;;;6.28;2.33;;;;;;;;;;5038944;28;20080;-65
2023/06/28 07:05:35;;;;;;;5.65;2.38;;;;;;;;;;5015025;28;20056;-64
2023/06/28 07:08:01;;;;;;;4.60;1.92;;;;;;;;;;5039190;28;20176;-64
2023/06/28 07:10:28;;;;;;;9.05;2.85;;;;;;;;;;5030288;28;20075;-64
2023/06/28 07:12:57;;;;;;;7.22;2.80;;;;;;;;;;5035536;28;20064;-64
2023/06/28 07:15:27;;;;;;;5.63;2.33;;;;;;;;;;5026482;28;20053;-65
2023/06/28 07:17:56;;;;;;;7.05;2.33;;;;;;;;;;5036094;28;20064;-64
2023/06/28 07:20:22;;;;;;;3.53;1.75;;;;;;;;;;5031112;28;20089;-65
2023/06/28 07:22:52;;;;;;;2.95;1.55;;;;;;;;;;5035882;28;20148;-64
2023/06/28 07:25:19;;;;;;;7.03;1.95;;;;;;;;;;5037285;28;20088;-63
2023/06/28 07:27:45;;;;;;;8.20;2.78;;;;;;;;;;5037963;28;20092;-64
2023/06/28 07:30:13;;;;;;;7.03;2.72;;;;;;;;;;5041470;28;20060;-64
2023/06/28 07:32:39;;;;;;;5.55;2.30;;;;;;;;;;5035902;28;20139;-64
2023/06/28 07:35:06;;;;;;;5.40;2.25;;;;;;;;;;5037522;28;20126;-65
2023/06/28 07:37:32;;;;;;;10.77;2.45;;;;;;;;;;5037199;28;20144;-65
2023/06/28 07:40:01;;;;;;;8.00;2.05;;;;;;;;;;5040222;28;20076;-63
2023/06/28 07:42:29;;;;;;;8.60;2.50;;;;;;;;;;5029503;28;20053;-66
2023/06/28 07:44:55;;;;;;;6.43;2.55;;;;;;;;;;5012578;28;20102;-67
2023/06/28 07:47:22;;;;;;;5.10;2.17;;;;;;;;;;5039891;28;20092;-65
2023/06/28 07:49:48;;;;;;;11.05;3.30;;;;;;;;;;5041832;28;20140;-64
2023/06/28 07:52:15;;;;;;;4.43;1.92;;;;;;;;;;5037264;28;20059;-66
2023/06/28 07:54:42;;;;;;;8.18;3.47;;;;;;;;;;5032211;28;20064;-64
2023/06/28 07:57:10;;;;;;;12.20;4.97;;;;;;;;;;5044753;28;20061;-64
2023/06/28 07:59:36;;;;;;;6.80;2.50;;;;;;;;;;5038097;28;20052;-65
2023/06/28 08:02:03;;;;;;;13.43;4.40;;;;;;;;;;5040628;28;20144;-65
2023/06/28 08:04:30;;;;;;;10.45;4.30;;;;;;;;;;5021166;28;20261;-65
2023/06/28 08:06:59;;;;;;;9.15;4.03;;;;;;;;;;5053378;28;20057;-64
2023/06/28 08:09:26;;;;;;;10.77;2.90;;;;;;;;;;5041466;28;20049;-64
2023/06/28 08:11:52;;;;;;;6.78;2.78;;;;;;;;;;5046689;28;20052;-64
2023/06/28 08:14:20;;;;;;;7.07;3.47;;;;;;;;;;5023693;28;20059;-64
2023/06/28 08:16:47;;;;;;;13.45;4.30;;;;;;;;;;5040076;28;20052;-64
2023/06/28 08:19:16;;;;;;;6.05;3.22;;;;;;;;;;5039031;28;20083;-64
2023/06/28 08:21:43;;;;;;;4.05;1.90;;;;;;;;;;5040792;28;20049;-65
2023/06/28 08:24:10;;;;;;;10.05;3.70;;;;;;;;;;5031062;28;20072;-66
2023/06/28 08:26:38;;;;;;;9.38;2.85;;;;;;;;;;5035490;28;20065;-64
2023/06/28 08:29:12;;;;;;;5.75;2.60;;;;;;;;;;5036526;28;20159;-64
2023/06/28 08:31:42;;;;;;;7.18;1.80;;;;;;;;;;5039192;28;20059;-66
2023/06/28 08:34:08;;;;;;;8.02;2.70;;;;;;;;;;5035926;28;20126;-66
2023/06/28 08:36:35;;;;;;;13.43;2.50;;;;;;;;;;5038268;28;20057;-64
2023/06/28 08:39:01;;;;;;;6.32;2.30;;;;;;;;;;5040420;28;20057;-65
2023/06/28 08:41:28;;;;;;;6.20;2.28;;;;;;;;;;5019541;28;20087;-64
2023/06/28 08:43:55;;;;;;;9.30;2.63;;;;;;;;;;5039755;28;20053;-65
2023/06/28 08:46:22;;;;;;;6.13;2.78;;;;;;;;;;5026214;28;20052;-65
2023/06/28 08:48:51;;;;;;;11.13;4.35;;;;;;;;;;5040977;28;20390;-66
2023/06/28 08:51:17;;;;;;;9.73;3.38;;;;;;;;;;5036380;28;20080;-65
2023/06/28 08:53:49;;;;;;;7.00;3.10;;;;;;;;;;5039311;28;20142;-65
2023/06/28 08:56:19;;;;;;;9.82;3.90;;;;;;;;;;5034913;28;20080;-64
2023/06/28 08:58:48;;;;;;;8.30;2.85;;;;;;;;;;5040568;28;20063;-64
2023/06/28 09:01:14;;;;;;;8.32;3.08;;;;;;;;;;5037184;28;20055;-66
2023/06/28 09:03:41;;;;;;;6.47;2.58;;;;;;;;;;5038711;28;20134;-66
2023/06/28 09:06:10;;;;;;;5.38;1.77;;;;;;;;;;5034706;28;20148;-65
2023/06/28 09:08:36;;;;;;;10.10;2.90;;;;;;;;;;5031689;28;20095;-66
2023/06/28 09:11:03;;;;;;;5.35;2.15;;;;;;;;;;5038046;28;20056;-67
2023/06/28 09:13:30;;;;;;;6.00;2.22;;;;;;;;;;5038176;28;20094;-66
2023/06/28 09:15:57;;;;;;;7.80;1.98;;;;;;;;;;4995905;28;20061;-65
2023/06/28 09:18:23;;;;;;;10.68;2.40;;;;;;;;;;5033400;28;20053;-66
2023/06/28 09:20:53;;;;;;;6.10;2.10;;;;;;;;;;5038199;28;20129;-63
2023/06/28 09:23:24;;;;;;;7.40;2.75;;;;;;;;;;5042812;28;20044;-65
2023/06/28 09:25:50;;;;;;;15.32;2.95;;;;;;;;;;5031851;28;20068;-66
2023/06/28 09:28:19;;;;;;;7.57;2.92;;;;;;;;;;5032635;28;20122;-66
2023/06/28 09:30:52;;;;;;;9.55;4.25;;;;;;;;;;5040572;28;20057;-65
2023/06/28 09:33:18;;;;;;;13.73;4.57;;;;;;;;;;5036489;28;20133;-67
2023/06/28 09:35:45;;;;;;;7.88;3.47;;;;;;;;;;5036356;28;20053;-65
2023/06/28 09:38:11;;;;;;;8.40;3.05;;;;;;;;;;5037454;28;20052;-64
2023/06/28 09:40:42;;;;;;;10.80;4.30;;;;;;;;;;5036534;28;20151;-67
2023/06/28 09:43:14;;;;;;;11.10;4.13;;;;;;;;;;5039730;28;20075;-64
2023/06/28 09:45:40;;;;;;;9.75;4.05;;;;;;;;;;5033399;28;20056;-65
2023/06/28 09:48:07;;;;;;;14.18;4.00;;;;;;;;;;5034841;28;20053;-64
2023/06/28 09:50:37;;;;;;;3.80;1.67;;;;;;;;;;5034229;28;22257;-66
2023/06/28 09:53:06;;;;;;;7.50;3.10;;;;;;;;;;5037125;28;20057;-67
2023/06/28 09:55:33;;;;;;;9.10;3.17;;;;;;;;;;5035019;28;20064;-68
2023/06/28 09:58:01;;;;;;;11.55;3.97;;;;;;;;;;5037970;28;20063;-67
2023/06/28 10:00:29;;;;;;;14.68;5.15;;;;;;;;;;5033176;28;20060;-67
2023/06/28 10:02:56;;;;;;;10.57;3.23;;;;;;;;;;5034898;28;20056;-68
2023/06/28 10:05:22;;;;;;;10.95;4.45;;;;;;;;;;5041729;28;20139;-66
2023/06/28 10:07:50;;;;;;;10.63;4.75;;;;;;;;;;5040901;28;20057;-65
2023/06/28 10:10:17;;;;;;;17.98;9.10;;;;;;;;;;5037618;28;20142;-68
2023/06/28 10:12:44;;;;;;;13.98;4.57;;;;;;;;;;5038052;28;20057;-70
2023/06/28 10:15:14;;;;;;;11.95;4.10;;;;;;;;;;5011803;28;20200;-67
2023/06/28 10:17:41;;;;;;;7.72;3.28;;;;;;;;;;5039313;28;20056;-66
2023/06/28 10:20:09;;;;;;;6.72;2.67;;;;;;;;;;5034051;28;20045;-66
2023/06/28 10:22:37;;;;;;;8.55;2.78;;;;;;;;;;5032010;28;20052;-70
2023/06/28 10:25:04;;;;;;;9.23;4.22;;;;;;;;;;5034317;28;20053;-66
2023/06/28 10:27:33;;;;;;;9.40;4.63;;;;;;;;;;5039692;28;20052;-67
2023/06/28 10:30:00;;;;;;;8.95;3.40;;;;;;;;;;5038227;28;20053;-69
2023/06/28 10:32:28;;;;;;;10.40;4.43;;;;;;;;;;5032744;28;20061;-67
2023/06/28 10:34:56;;;;;;;12.63;5.03;;;;;;;;;;5033850;28;20052;-70
2023/06/28 10:37:23;;;;;;;10.23;3.38;;;;;;;;;;5042497;28;20053;-67
2023/06/28 10:39:51;;;;;;;12.13;4.40;;;;;;;;;;5036891;28;20122;-69
2023/06/28 10:42:19;;;;;;;11.63;4.83;;;;;;;;;;5036109;28;20056;-66
2023/06/28 10:44:58;;;;;;;10.18;3.65;;;;;;;;;;5010911;28;20157;-66
2023/06/28 10:47:40;;;;;;;14.10;4.50;;;;;;;;;;5050577;28;20048;-65
2023/06/28 10:50:24;;;;;;;12.48;4.35;;;;;;;;;;5033914;28;20053;-69
2023/06/28 10:52:52;;;;;;;8.65;3.35;;;;;;;;;;5038533;28;20053;-67
2023/06/28 10:55:19;;;;;;;11.55;5.03;;;;;;;;;;4987013;28;20127;-68
2023/06/28 10:57:45;;;;;;;7.45;3.60;;;;;;;;;;5021604;28;20075;-68
2023/06/28 11:00:27;;;;;;;11.02;3.97;;;;;;;;;;5035375;28;20057;-68
2023/06/28 11:02:54;;;;;;;15.38;5.20;;;;;;;;;;5041465;28;20144;-68
2023/06/28 11:05:39;;;;;;;8.77;3.83;;;;;;;;;;5033427;28;20053;-67
2023/06/28 11:08:12;;;;;;;7.65;2.45;;;;;;;;;;5038629;28;20119;-65
2023/06/28 11:10:39;;;;;;;10.50;4.47;;;;;;;;;;5031943;28;20065;-67
2023/06/28 11:13:09;;;;;;;15.48;4.55;;;;;;;;;;5038699;28;20089;-66
2023/06/28 11:15:36;;;;;;;8.88;3.88;;;;;;;;;;5020640;28;20049;-66
2023/06/28 11:18:13;;;;;;;16.02;6.22;;;;;;;;;;5033924;28;20061;-67
2023/06/28 11:20:49;;;;;;;7.40;3.17;;;;;;;;;;5028557;28;20122;-67
2023/06/28 11:23:23;;;;;;;14.32;3.83;;;;;;;;;;5037639;28;20155;-66
2023/06/28 11:26:02;;;;;;;9.25;3.78;;;;;;;;;;5012261;28;20135;-66
2023/06/28 11:28:29;;;;;;;10.23;4.65;;;;;;;;;;5031663;28;20114;-65
2023/06/28 11:31:11;;;;;;;8.40;3.47;;;;;;;;;;5035877;28;20071;-67
2023/06/28 11:33:38;;;;;;;14.07;4.45;;;;;;;;;;5040936;28;20228;-65
2023/06/28 11:36:08;;;;;;;8.07;2.95;;;;;;;;;;5025208;28;20067;-66
2023/06/28 11:38:35;;;;;;;9.75;5.13;;;;;;;;;;5030692;28;21595;-66
2023/06/28 11:41:06;;;;;;;6.20;2.83;;;;;;;;;;5039786;28;20072;-66
2023/06/28 11:43:32;;;;;;;10.88;5.13;;;;;;;;;;5036011;28;20064;-66
2023/06/28 11:45:59;;;;;;;9.73;4.05;;;;;;;;;;5025616;28;20087;-65
2023/06/28 11:48:26;;;;;;;12.32;4.72;;;;;;;;;;5029160;28;20060;-66
2023/06/28 11:50:58;;;;;;;7.78;3.45;;;;;;;;;;5038859;28;20075;-65
2023/06/28 11:53:27;;;;;;;7.50;3.13;;;;;;;;;;5034230;28;20053;-65
2023/06/28 11:55:54;;;;;;;9.45;4.20;;;;;;;;;;5027400;28;20141;-65
2023/06/28 11:58:35;;;;;;;13.68;6.10;;;;;;;;;;5029466;28;20118;-66
2023/06/28 12:01:03;;;;;;;9.77;4.07;;;;;;;;;;5036930;28;20115;-67
2023/06/28 12:03:34;;;;;;;8.98;3.65;;;;;;;;;;5035288;28;20137;-65
2023/06/28 12:06:01;;;;;;;11.52;5.60;;;;;;;;;;5015758;28;20061;-66
2023/06/28 12:08:40;;;;;;;14.43;7.78;;;;;;;;;;5026193;28;20136;-66
2023/06/28 12:11:11;;;;;;;9.85;4.00;;;;;;;;;;5021905;28;20057;-65
2023/06/28 12:13:38;;;;;;;11.20;4.47;;;;;;;;;;5036149;28;20155;-65
2023/06/28 12:16:13;;;;;;;12.65;5.00;;;;;;;;;;5029593;28;20057;-67
2023/06/28 12:18:53;;;;;;;14.25;4.63;;;;;;;;;;5020840;28;20091;-66
2023/06/28 12:21:21;;;;;;;11.88;5.32;;;;;;;;;;5037484;28;20057;-64
2023/06/28 12:23:50;;;;;;;11.90;4.47;;;;;;;;;;5041382;28;20061;-67
2023/06/28 12:26:19;;;;;;;9.98;4.43;;;;;;;;;;5009142;28;20057;-65
2023/06/28 12:28:48;;;;;;;12.50;4.80;;;;;;;;;;5023686;28;20061;-66
2023/06/28 12:31:15;;;;;;;11.15;6.00;;;;;;;;;;5042626;28;20156;-66
2023/06/28 12:33:42;;;;;;;19.17;5.85;;;;;;;;;;5036108;28;20135;-64
2023/06/28 12:36:13;;;;;;;10.77;4.18;;;;;;;;;;5030692;28;20075;-65
2023/06/28 12:38:43;;;;;;;12.45;4.97;;;;;;;;;;5035097;28;20142;-66
2023/06/28 12:41:12;;;;;;;8.27;2.70;;;;;;;;;;5036494;28;20115;-65
2023/06/28 12:43:39;;;;;;;15.80;6.88;;;;;;;;;;5023032;28;20065;-67
2023/06/28 12:46:06;;;;;;;13.80;5.25;;;;;;;;;;5027182;28;20061;-67
2023/06/28 12:48:32;;;;;;;15.95;6.13;;;;;;;;;;5033747;28;20171;-64
2023/06/28 12:51:00;;;;;;;11.18;4.57;;;;;;;;;;5037522;28;20057;-66
2023/06/28 12:53:27;;;;;;;16.15;6.10;;;;;;;;;;5042139;28;20132;-64
2023/06/28 12:55:53;;;;;;;18.95;7.75;;;;;;;;;;5026806;28;20075;-67
2023/06/28 12:58:23;;;;;;;17.35;5.93;;;;;;;;;;5032982;28;20095;-64
2023/06/28 13:00:49;;;;;;;16.98;7.20;;;;;;;;;;5034001;28;20068;-64
2023/06/28 13:03:16;;;;;;;13.88;6.15;;;;;;;;;;5042919;28;20084;-64
2023/06/28 13:05:45;;;;;;;9.18;3.25;;;;;;;;;;5028616;28;20128;-65
2023/06/28 13:08:12;;;;;;;17.90;6.03;;;;;;;;;;5038672;28;20053;-65
2023/06/28 13:10:38;;;;;;;9.35;3.47;;;;;;;;;;5040314;28;20049;-65
2023/06/28 13:13:05;;;;;;;8.02;3.55;;;;;;;;;;5040340;28;20048;-64
2023/06/28 13:15:33;;;;;;;10.75;3.13;;;;;;;;;;5003355;28;20045;-64
2023/06/28 13:18:02;;;;;;;14.90;6.65;;;;;;;;;;5041063;28;20053;-64
2023/06/28 13:20:31;;;;;;;15.20;6.72;;;;;;;;;;5027155;28;20067;-64
2023/06/28 13:22:58;;;;;;;10.52;4.95;;;;;;;;;;5039746;28;20092;-65
2023/06/28 13:25:27;;;;;;;18.65;5.63;;;;;;;;;;5014500;28;20123;-65
2023/06/28 13:27:54;;;;;;;12.73;4.95;;;;;;;;;;5043218;28;20056;-65
2023/06/28 13:30:21;;;;;;;15.18;5.25;;;;;;;;;;5048738;28;20057;-66
2023/06/28 13:32:52;;;;;;;14.50;5.70;;;;;;;;;;5035028;28;20122;-65
2023/06/28 13:35:18;;;;;;;9.63;4.35;;;;;;;;;;5039428;28;20053;-66
2023/06/28 13:37:47;;;;;;;13.15;5.78;;;;;;;;;;5036047;28;20148;-65
2023/06/28 13:40:15;;;;;;;7.50;3.63;;;;;;;;;;5036792;28;20057;-65
2023/06/28 13:42:45;;;;;;;14.48;7.13;;;;;;;;;;5033053;28;20045;-65
2023/06/28 13:45:14;;;;;;;15.23;6.43;;;;;;;;;;5033219;28;20072;-66
2023/06/28 13:48:02;;;;;;;8.20;3.70;;;;;;;;;;5033835;28;20053;-67
2023/06/28 13:50:33;;;;;;;9.52;4.63;;;;;;;;;;5019932;28;20057;-66
2023/06/28 13:53:01;;;;;;;15.23;6.30;;;;;;;;;;5032086;28;20084;-66
2023/06/28 13:55:27;;;;;;;18.75;6.78;;;;;;;;;;5038951;28;20045;-67
2023/06/28 13:57:56;;;;;;;19.30;8.38;;;;;;;;;;5038880;28;20183;-66
2023/06/28 14:00:23;;;;;;;16.13;7.55;;;;;;;;;;5034273;28;20139;-66
2023/06/28 14:02:49;;;;;;;17.60;7.70;;;;;;;;;;5038487;28;20048;-66
2023/06/28 14:05:17;;;;;;;27.55;9.90;;;;;;;;;;5012422;28;20061;-66
2023/06/28 14:07:47;;;;;;;12.18;5.63;;;;;;;;;;5036302;28;20076;-68
2023/06/28 14:10:14;;;;;;;14.13;6.25;;;;;;;;;;5038040;28;20136;-66
2023/06/28 14:12:43;;;;;;;16.38;8.02;;;;;;;;;;5028202;28;20053;-67
2023/06/28 14:15:13;;;;;;;25.73;8.43;;;;;;;;;;5035227;28;20057;-66
2023/06/28 14:17:41;;;;;;;16.42;6.75;;;;;;;;;;5034062;28;20059;-67
2023/06/28 14:20:09;;;;;;;15.85;6.68;;;;;;;;;;5041040;28;20088;-66
2023/06/28 14:22:36;;;;;;;22.40;9.98;;;;;;;;;;5030246;28;21181;-66
2023/06/28 14:25:07;;;;;;;10.23;4.93;;;;;;;;;;5007936;28;20052;-68
2023/06/28 14:27:34;;;;;;;12.63;5.95;;;;;;;;;;5040275;28;20053;-67
2023/06/28 14:30:00;;;;;;;13.80;4.90;;;;;;;;;;5033912;28;20049;-67
2023/06/28 14:32:37;;;;;;;19.70;7.20;;;;;;;;;;5035486;28;20052;-67
2023/06/28 14:37:49;;;;;;;10.80;4.90;;;;;;;;;;5015961;28;20143;-67
2023/06/28 14:40:17;;;;;;;19.10;6.90;;;;;;;;;;5031183;28;20110;-68
2023/06/28 14:42:48;;;;;;;16.27;7.75;;;;;;;;;;5041941;28;20108;-67
2023/06/28 14:45:19;;;;;;;13.05;5.15;;;;;;;;;;5027393;28;20485;-67
2023/06/28 14:47:49;;;;;;;24.95;12.43;;;;;;;;;;5052677;28;20060;-66